Time;durP1;ratioP1;P1;durP2;ratioP2;P2;SDS_P1;SDS_P2;PMS_P1;PMS_P2;Temp;Humidity;BMP_temperature;BMP_pressure;BME280_temperature;BME280_humidity;BME280_pressure;Samples;Min_cycle;Max_cycle;Signal;HPM_P1;HPM_P2
2023/05/13 00:01:17;;;;;;;58.23;2.73;;;;;;;;;;5073119;28;20470;-67
2023/05/13 00:03:45;;;;;;;57.43;2.40;;;;;;;;;;5073155;28;20478;-67
2023/05/13 00:06:12;;;;;;;58.20;2.50;;;;;;;;;;5073031;28;20948;-67
2023/05/13 00:08:39;;;;;;;57.17;2.40;;;;;;;;;;5072628;28;20469;-67
2023/05/13 00:11:06;;;;;;;57.47;2.50;;;;;;;;;;5072683;28;20980;-67
2023/05/13 00:13:33;;;;;;;57.77;3.10;;;;;;;;;;5073213;28;20451;-67
2023/05/13 00:16:00;;;;;;;57.50;2.60;;;;;;;;;;5073026;28;20443;-67
2023/05/13 00:18:29;;;;;;;57.27;2.47;;;;;;;;;;5072743;28;21022;-67
2023/05/13 00:20:56;;;;;;;58.37;2.97;;;;;;;;;;5072430;28;20971;-67
2023/05/13 00:23:23;;;;;;;57.17;2.50;;;;;;;;;;5072643;28;20452;-67
2023/05/13 00:25:50;;;;;;;57.57;2.50;;;;;;;;;;5072494;28;20462;-67
2023/05/13 00:28:18;;;;;;;57.27;2.40;;;;;;;;;;5072671;28;20443;-67
2023/05/13 00:30:45;;;;;;;57.37;2.10;;;;;;;;;;5072194;28;20483;-67
2023/05/13 00:33:12;;;;;;;57.23;2.37;;;;;;;;;;5072631;28;20449;-67
2023/05/13 00:35:41;;;;;;;57.50;2.60;;;;;;;;;;5072367;28;20456;-67
2023/05/13 00:38:08;;;;;;;57.37;2.40;;;;;;;;;;5072136;28;20486;-67
2023/05/13 00:40:38;;;;;;;57.43;2.77;;;;;;;;;;5072305;28;20479;-67
2023/05/13 00:43:05;;;;;;;57.20;2.40;;;;;;;;;;5072690;28;20447;-67
2023/05/13 00:45:32;;;;;;;58.47;2.60;;;;;;;;;;5072422;28;20497;-67
2023/05/13 00:48:00;;;;;;;57.13;2.37;;;;;;;;;;5072275;28;20469;-67
2023/05/13 00:50:27;;;;;;;57.23;2.47;;;;;;;;;;5071879;28;20468;-67
2023/05/13 00:52:56;;;;;;;56.93;2.37;;;;;;;;;;5072000;28;20457;-67
2023/05/13 00:55:23;;;;;;;57.60;2.60;;;;;;;;;;5072352;28;20458;-67
2023/05/13 00:57:50;;;;;;;56.87;2.30;;;;;;;;;;5072182;28;20483;-67
2023/05/13 01:00:17;;;;;;;58.00;2.60;;;;;;;;;;5071799;28;20475;-67
2023/05/13 01:02:47;;;;;;;56.77;2.27;;;;;;;;;;5072086;28;20454;-67
2023/05/13 01:05:19;;;;;;;57.17;2.23;;;;;;;;;;5072011;28;20632;-67
2023/05/13 01:07:50;;;;;;;57.30;2.50;;;;;;;;;;5072026;28;20443;-67
2023/05/13 01:10:24;;;;;;;57.50;2.30;;;;;;;;;;5071235;28;20466;-67
2023/05/13 01:12:53;;;;;;;57.03;2.40;;;;;;;;;;5072223;28;20454;-67
2023/05/13 01:15:22;;;;;;;57.17;2.40;;;;;;;;;;5071886;28;20448;-67
2023/05/13 01:17:50;;;;;;;57.03;2.30;;;;;;;;;;5071524;28;20853;-67
2023/05/13 01:20:18;;;;;;;57.30;2.20;;;;;;;;;;5071627;28;20570;-67
2023/05/13 01:22:47;;;;;;;57.47;2.60;;;;;;;;;;5071888;28;20458;-67
2023/05/13 01:25:14;;;;;;;57.27;2.30;;;;;;;;;;5071717;28;20465;-67
2023/05/13 01:27:41;;;;;;;57.57;2.70;;;;;;;;;;5071815;28;20449;-67
2023/05/13 01:30:09;;;;;;;57.37;2.47;;;;;;;;;;5071379;28;20467;-67
2023/05/13 01:32:37;;;;;;;57.27;2.40;;;;;;;;;;5071648;28;20448;-67
2023/05/13 01:35:05;;;;;;;57.57;2.50;;;;;;;;;;5071966;28;20447;-67
2023/05/13 01:37:33;;;;;;;57.33;2.40;;;;;;;;;;5071684;28;20528;-67
2023/05/13 01:40:01;;;;;;;57.43;2.40;;;;;;;;;;5071348;28;20821;-67
2023/05/13 01:42:30;;;;;;;57.33;2.50;;;;;;;;;;5071710;28;20819;-67
2023/05/13 01:44:58;;;;;;;57.80;2.90;;;;;;;;;;5071464;28;20439;-67
2023/05/13 01:47:25;;;;;;;57.50;2.50;;;;;;;;;;5071753;28;20454;-67
2023/05/13 01:49:52;;;;;;;59.30;3.00;;;;;;;;;;5071132;28;20453;-67
2023/05/13 01:52:19;;;;;;;57.27;2.50;;;;;;;;;;5070582;28;20804;-67
2023/05/13 01:54:46;;;;;;;57.40;2.57;;;;;;;;;;5071414;28;20573;-67
2023/05/13 01:57:15;;;;;;;57.00;2.40;;;;;;;;;;5071353;28;20447;-67
2023/05/13 01:59:42;;;;;;;57.50;2.40;;;;;;;;;;5071265;28;20447;-67
2023/05/13 02:02:09;;;;;;;57.60;2.60;;;;;;;;;;5071531;28;20451;-67
2023/05/13 02:04:36;;;;;;;57.50;2.70;;;;;;;;;;5071418;28;20443;-67
2023/05/13 02:07:03;;;;;;;57.60;3.13;;;;;;;;;;5071266;28;21031;-67
2023/05/13 02:09:31;;;;;;;57.70;2.70;;;;;;;;;;5071347;28;20465;-67
2023/05/13 02:11:58;;;;;;;57.80;3.10;;;;;;;;;;5071274;28;20521;-67
2023/05/13 02:14:26;;;;;;;57.63;2.93;;;;;;;;;;5071473;28;20444;-67
2023/05/13 02:16:53;;;;;;;56.70;2.33;;;;;;;;;;5071348;28;20812;-67
2023/05/13 02:19:20;;;;;;;57.47;2.50;;;;;;;;;;5070893;28;20490;-67
2023/05/13 02:21:47;;;;;;;57.17;2.70;;;;;;;;;;5073255;28;20495;-67
2023/05/13 02:24:14;;;;;;;57.50;2.40;;;;;;;;;;5075054;28;20463;-67
2023/05/13 02:26:43;;;;;;;57.27;2.30;;;;;;;;;;5075135;28;20816;-67
2023/05/13 02:29:11;;;;;;;56.50;2.63;;;;;;;;;;5074483;28;20443;-67
2023/05/13 02:31:40;;;;;;;57.03;2.50;;;;;;;;;;5074944;28;20463;-67
2023/05/13 02:34:07;;;;;;;57.13;2.43;;;;;;;;;;5074782;28;20454;-67
2023/05/13 02:36:34;;;;;;;56.70;2.40;;;;;;;;;;5074690;28;20442;-67
2023/05/13 02:39:01;;;;;;;57.23;2.10;;;;;;;;;;5074486;28;20486;-67
2023/05/13 02:41:28;;;;;;;57.27;2.50;;;;;;;;;;5074789;28;20562;-67
2023/05/13 02:43:55;;;;;;;57.37;2.33;;;;;;;;;;5074578;28;20447;-67
2023/05/13 02:46:22;;;;;;;57.10;2.50;;;;;;;;;;5074664;28;20470;-67
2023/05/13 02:48:51;;;;;;;56.57;2.50;;;;;;;;;;5074135;28;20895;-67
2023/05/13 02:51:18;;;;;;;56.97;2.50;;;;;;;;;;5074580;28;20463;-67
2023/05/13 02:53:45;;;;;;;57.00;2.50;;;;;;;;;;5074318;28;20948;-67
2023/05/13 02:56:15;;;;;;;57.27;2.60;;;;;;;;;;5074443;28;20457;-67
2023/05/13 02:58:42;;;;;;;56.67;2.27;;;;;;;;;;5073856;28;20490;-67
2023/05/13 03:01:09;;;;;;;57.37;2.77;;;;;;;;;;5074206;28;20471;-67
2023/05/13 03:03:36;;;;;;;57.20;2.67;;;;;;;;;;5074218;28;20451;-67
2023/05/13 03:06:04;;;;;;;57.17;2.40;;;;;;;;;;5074374;28;20501;-67
2023/05/13 03:08:32;;;;;;;57.13;2.60;;;;;;;;;;5074107;28;20808;-67
2023/05/13 03:10:59;;;;;;;57.20;2.30;;;;;;;;;;5074502;28;20471;-67
2023/05/13 03:13:26;;;;;;;57.20;2.20;;;;;;;;;;5074119;28;20447;-67
2023/05/13 03:15:53;;;;;;;57.30;2.70;;;;;;;;;;5074157;28;20847;-67
2023/05/13 03:18:20;;;;;;;57.40;2.50;;;;;;;;;;5074000;28;20494;-67
2023/05/13 03:20:47;;;;;;;57.30;2.30;;;;;;;;;;5073506;28;20466;-67
2023/05/13 03:23:16;;;;;;;56.90;2.20;;;;;;;;;;5073894;28;20456;-67
2023/05/13 03:25:43;;;;;;;57.10;2.50;;;;;;;;;;5074022;28;20455;-67
2023/05/13 03:28:10;;;;;;;57.23;2.40;;;;;;;;;;5073612;28;20439;-67
2023/05/13 03:30:38;;;;;;;57.27;2.40;;;;;;;;;;5073287;28;20467;-67
2023/05/13 03:33:05;;;;;;;57.80;2.60;;;;;;;;;;5073316;28;20954;-67
2023/05/13 03:35:32;;;;;;;57.70;2.70;;;;;;;;;;5073840;28;20551;-67
2023/05/13 03:37:59;;;;;;;56.77;2.30;;;;;;;;;;5073615;28;20486;-67
2023/05/13 03:40:27;;;;;;;56.97;2.20;;;;;;;;;;5073518;28;20466;-67
2023/05/13 03:42:54;;;;;;;56.97;2.30;;;;;;;;;;5073455;28;20455;-67
2023/05/13 03:45:22;;;;;;;56.97;2.30;;;;;;;;;;5073809;28;20936;-67
2023/05/13 03:47:50;;;;;;;57.00;2.33;;;;;;;;;;5073643;28;20546;-67
2023/05/13 03:50:17;;;;;;;57.90;2.50;;;;;;;;;;5072917;28;20471;-67
2023/05/13 03:52:44;;;;;;;57.07;2.30;;;;;;;;;;5073705;28;20955;-67
2023/05/13 03:55:13;;;;;;;59.73;2.63;;;;;;;;;;5073266;28;20454;-67
2023/05/13 03:57:42;;;;;;;57.30;2.70;;;;;;;;;;5073065;28;20454;-67
2023/05/13 04:00:09;;;;;;;56.97;2.20;;;;;;;;;;5072774;28;20477;-67
2023/05/13 04:02:36;;;;;;;57.83;2.57;;;;;;;;;;5073079;28;20935;-67
2023/05/13 04:05:05;;;;;;;57.17;2.27;;;;;;;;;;5073136;28;20481;-67
2023/05/13 04:07:32;;;;;;;57.50;2.60;;;;;;;;;;5073096;28;20455;-67
2023/05/13 04:09:59;;;;;;;57.20;2.70;;;;;;;;;;5072563;28;20812;-67
2023/05/13 04:12:26;;;;;;;57.10;2.33;;;;;;;;;;5072838;28;20538;-67
2023/05/13 04:14:55;;;;;;;56.73;2.37;;;;;;;;;;5072888;28;20497;-67
2023/05/13 04:17:22;;;;;;;57.90;2.83;;;;;;;;;;5072906;28;20443;-67
2023/05/13 04:19:49;;;;;;;57.10;2.50;;;;;;;;;;5072220;28;20483;-67
2023/05/13 04:22:16;;;;;;;57.07;2.30;;;;;;;;;;5072626;28;20443;-67
2023/05/13 04:24:43;;;;;;;57.63;2.80;;;;;;;;;;5072450;28;20470;-67
2023/05/13 04:27:10;;;;;;;56.67;2.40;;;;;;;;;;5072614;28;20444;-67
2023/05/13 04:29:37;;;;;;;57.03;2.40;;;;;;;;;;5072490;28;20847;-67
2023/05/13 04:32:06;;;;;;;56.77;2.50;;;;;;;;;;5072645;28;20467;-67
2023/05/13 04:34:33;;;;;;;57.07;2.40;;;;;;;;;;5072577;28;20456;-67
2023/05/13 04:37:00;;;;;;;57.47;2.40;;;;;;;;;;5072354;28;20451;-67
2023/05/13 04:39:27;;;;;;;57.60;2.80;;;;;;;;;;5072213;28;20490;-67
2023/05/13 04:41:54;;;;;;;57.17;2.60;;;;;;;;;;5072592;28;20713;-67
2023/05/13 04:44:21;;;;;;;56.77;2.27;;;;;;;;;;5071805;28;20891;-67
2023/05/13 04:46:48;;;;;;;57.17;2.40;;;;;;;;;;5072415;28;20454;-67
2023/05/13 04:49:17;;;;;;;57.10;2.20;;;;;;;;;;5071968;28;20443;-67
2023/05/13 04:51:44;;;;;;;56.77;2.43;;;;;;;;;;5072132;28;20475;-67
2023/05/13 04:54:11;;;;;;;57.17;2.30;;;;;;;;;;5072583;28;20450;-67
2023/05/13 04:56:38;;;;;;;56.90;2.13;;;;;;;;;;5072429;28;20447;-67
2023/05/13 04:59:05;;;;;;;56.87;2.30;;;;;;;;;;5071828;28;20856;-67
2023/05/13 05:01:32;;;;;;;57.20;2.40;;;;;;;;;;5072028;28;20467;-67
2023/05/13 05:03:59;;;;;;;56.97;2.20;;;;;;;;;;5072597;28;20810;-67
2023/05/13 05:06:28;;;;;;;56.47;2.10;;;;;;;;;;5071970;28;20455;-67
2023/05/13 05:08:55;;;;;;;57.00;2.23;;;;;;;;;;5071854;28;20458;-67
2023/05/13 05:11:22;;;;;;;56.87;2.33;;;;;;;;;;5071997;28;20486;-67
2023/05/13 05:13:49;;;;;;;57.07;2.50;;;;;;;;;;5072015;28;20450;-67
2023/05/13 05:16:16;;;;;;;57.40;2.50;;;;;;;;;;5072339;28;20443;-67
2023/05/13 05:18:43;;;;;;;57.27;2.40;;;;;;;;;;5071913;28;20479;-67
2023/05/13 05:21:11;;;;;;;56.90;2.20;;;;;;;;;;5072066;28;20900;-67
2023/05/13 05:23:39;;;;;;;57.10;2.37;;;;;;;;;;5071804;28;20458;-67
2023/05/13 05:26:06;;;;;;;57.10;2.40;;;;;;;;;;5071996;28;20446;-67
2023/05/13 05:28:33;;;;;;;57.07;2.50;;;;;;;;;;5071695;28;20818;-67
2023/05/13 05:31:01;;;;;;;58.47;2.87;;;;;;;;;;5071649;28;20885;-67
2023/05/13 05:33:28;;;;;;;57.17;2.50;;;;;;;;;;5071601;28;20508;-67
2023/05/13 05:35:56;;;;;;;57.47;2.80;;;;;;;;;;5071710;28;20964;-67
2023/05/13 05:38:24;;;;;;;57.27;2.70;;;;;;;;;;5071750;28;20445;-67
2023/05/13 05:40:52;;;;;;;57.70;2.93;;;;;;;;;;5071395;28;20477;-67
2023/05/13 05:43:19;;;;;;;57.17;2.30;;;;;;;;;;5071593;28;20504;-67
2023/05/13 05:45:46;;;;;;;56.97;2.50;;;;;;;;;;5071333;28;20447;-67
2023/05/13 05:48:13;;;;;;;57.10;2.23;;;;;;;;;;5071709;28;20443;-67
2023/05/13 05:50:41;;;;;;;57.27;2.80;;;;;;;;;;5071419;28;20471;-67
2023/05/13 05:53:08;;;;;;;57.03;2.13;;;;;;;;;;5071538;28;20443;-67
2023/05/13 05:55:35;;;;;;;57.27;2.47;;;;;;;;;;5073437;28;20462;-67
2023/05/13 05:58:06;;;;;;;57.47;2.60;;;;;;;;;;5075724;28;20449;-67
2023/05/13 06:00:33;;;;;;;57.20;2.70;;;;;;;;;;5075069;28;20488;-67
2023/05/13 06:03:00;;;;;;;57.50;2.90;;;;;;;;;;5075837;28;20448;-67
2023/05/13 06:05:27;;;;;;;57.10;2.50;;;;;;;;;;5075802;28;20444;-67
2023/05/13 06:07:54;;;;;;;57.17;2.30;;;;;;;;;;5075178;28;20462;-67
2023/05/13 06:10:21;;;;;;;57.03;2.30;;;;;;;;;;5075030;28;20842;-67
2023/05/13 06:12:49;;;;;;;56.93;2.37;;;;;;;;;;5075225;28;20439;-67
2023/05/13 06:15:18;;;;;;;57.70;2.90;;;;;;;;;;5075171;28;21104;-67
2023/05/13 06:17:45;;;;;;;59.23;4.43;;;;;;;;;;5075076;28;20453;-67
2023/05/13 06:20:13;;;;;;;56.97;2.40;;;;;;;;;;5074760;28;20491;-67
2023/05/13 06:22:40;;;;;;;57.37;2.80;;;;;;;;;;5075138;28;20526;-67
2023/05/13 06:25:07;;;;;;;56.77;2.40;;;;;;;;;;5074737;28;20459;-67
2023/05/13 06:27:34;;;;;;;57.63;2.90;;;;;;;;;;5074108;28;20450;-67
2023/05/13 06:30:01;;;;;;;56.97;2.27;;;;;;;;;;5074609;28;20466;-68
2023/05/13 06:32:30;;;;;;;57.20;2.47;;;;;;;;;;5075021;28;20533;-68
2023/05/13 06:34:58;;;;;;;57.20;2.20;;;;;;;;;;5074991;28;20490;-68
2023/05/13 06:37:25;;;;;;;56.87;2.30;;;;;;;;;;5074941;28;20447;-67
2023/05/13 06:39:52;;;;;;;57.60;2.20;;;;;;;;;;5074243;28;20479;-67
2023/05/13 06:42:19;;;;;;;57.07;2.23;;;;;;;;;;5074666;28;20450;-68
2023/05/13 06:44:46;;;;;;;58.13;2.80;;;;;;;;;;5074862;28;20452;-68
2023/05/13 06:47:15;;;;;;;56.80;2.00;;;;;;;;;;5074728;28;20447;-68
2023/05/13 06:49:43;;;;;;;56.97;2.17;;;;;;;;;;5074068;28;20451;-68
2023/05/13 06:52:11;;;;;;;57.07;2.10;;;;;;;;;;5074399;28;20451;-68
2023/05/13 06:54:39;;;;;;;57.20;2.40;;;;;;;;;;5074369;28;20477;-68
2023/05/13 06:57:06;;;;;;;56.90;2.30;;;;;;;;;;5074685;28;20455;-68
2023/05/13 06:59:33;;;;;;;57.73;2.47;;;;;;;;;;5074028;28;20502;-68
2023/05/13 07:02:00;;;;;;;57.07;2.20;;;;;;;;;;5074555;28;20471;-68
2023/05/13 07:04:29;;;;;;;56.97;2.67;;;;;;;;;;5074302;28;20451;-68
2023/05/13 07:06:57;;;;;;;57.10;2.53;;;;;;;;;;5073463;28;20443;-68
2023/05/13 07:09:24;;;;;;;57.27;2.70;;;;;;;;;;5074124;28;20456;-68
2023/05/13 07:11:51;;;;;;;57.77;2.50;;;;;;;;;;5074192;28;20466;-67
2023/05/13 07:14:18;;;;;;;56.80;2.10;;;;;;;;;;5074004;28;20447;-68
2023/05/13 07:16:46;;;;;;;56.87;2.50;;;;;;;;;;5074194;28;20448;-68
2023/05/13 07:19:13;;;;;;;57.10;2.10;;;;;;;;;;5073369;28;20479;-67
2023/05/13 07:21:40;;;;;;;56.87;2.30;;;;;;;;;;5073767;28;20842;-67
2023/05/13 07:24:08;;;;;;;56.90;2.00;;;;;;;;;;5074030;28;20459;-67
2023/05/13 07:26:36;;;;;;;57.20;2.33;;;;;;;;;;5074209;28;20865;-67
2023/05/13 07:29:03;;;;;;;57.07;2.57;;;;;;;;;;5073547;28;20447;-67
2023/05/13 07:31:30;;;;;;;57.07;2.60;;;;;;;;;;5073699;28;20470;-67
2023/05/13 07:33:58;;;;;;;56.80;2.20;;;;;;;;;;5073701;28;20656;-67
2023/05/13 07:36:26;;;;;;;57.07;2.17;;;;;;;;;;5073594;28;20443;-67
2023/05/13 07:38:53;;;;;;;56.90;2.30;;;;;;;;;;5073174;28;20986;-67
2023/05/13 07:41:22;;;;;;;57.30;2.40;;;;;;;;;;5073735;28;20474;-67
2023/05/13 07:43:49;;;;;;;57.27;2.60;;;;;;;;;;5073751;28;20447;-67
2023/05/13 07:46:16;;;;;;;59.27;2.80;;;;;;;;;;5073628;28;20447;-67
2023/05/13 07:48:43;;;;;;;57.17;2.30;;;;;;;;;;5073082;28;20928;-67
2023/05/13 07:51:10;;;;;;;56.83;2.20;;;;;;;;;;5073703;28;20470;-67
2023/05/13 07:53:37;;;;;;;57.00;2.40;;;;;;;;;;5073584;28;20447;-67
2023/05/13 07:56:05;;;;;;;57.40;2.57;;;;;;;;;;5073272;28;20451;-67
2023/05/13 07:58:33;;;;;;;57.30;2.17;;;;;;;;;;5073021;28;20454;-67
2023/05/13 08:01:02;;;;;;;57.10;2.80;;;;;;;;;;5073124;28;20482;-67
2023/05/13 08:03:30;;;;;;;56.67;2.20;;;;;;;;;;5073074;28;20604;-67
2023/05/13 08:05:57;;;;;;;57.50;2.73;;;;;;;;;;5073346;28;20452;-67
2023/05/13 08:08:24;;;;;;;56.80;2.20;;;;;;;;;;5073152;28;20470;-67
2023/05/13 08:10:51;;;;;;;56.93;2.20;;;;;;;;;;5072778;28;20470;-67
2023/05/13 08:13:18;;;;;;;57.00;2.30;;;;;;;;;;5072908;28;20448;-67
2023/05/13 08:15:45;;;;;;;56.97;2.37;;;;;;;;;;5072742;28;20831;-68
2023/05/13 08:18:14;;;;;;;57.40;3.07;;;;;;;;;;5072107;28;20450;-68
2023/05/13 08:20:41;;;;;;;57.03;2.10;;;;;;;;;;5072375;28;20491;-68
2023/05/13 08:23:08;;;;;;;56.80;2.17;;;;;;;;;;5072749;28;20975;-67
2023/05/13 08:25:35;;;;;;;57.50;2.57;;;;;;;;;;5072644;28;20486;-67
2023/05/13 08:28:03;;;;;;;56.77;2.27;;;;;;;;;;5072614;28;20451;-67
2023/05/13 08:30:30;;;;;;;56.97;2.30;;;;;;;;;;5072299;28;20909;-67
2023/05/13 08:32:57;;;;;;;57.17;2.23;;;;;;;;;;5072933;28;20451;-67
2023/05/13 08:35:25;;;;;;;56.60;2.10;;;;;;;;;;5072697;28;20821;-67
2023/05/13 08:37:53;;;;;;;56.90;2.00;;;;;;;;;;5072581;28;20447;-67
2023/05/13 08:40:20;;;;;;;57.30;2.60;;;;;;;;;;5072059;28;20514;-67
2023/05/13 08:42:48;;;;;;;56.67;2.10;;;;;;;;;;5072374;28;20534;-67
2023/05/13 08:45:16;;;;;;;56.87;2.10;;;;;;;;;;5072888;28;20546;-67
2023/05/13 08:47:49;;;;;;;57.17;2.30;;;;;;;;;;5072455;28;20444;-67
2023/05/13 08:50:16;;;;;;;56.87;2.00;;;;;;;;;;5072099;28;20470;-67
2023/05/13 08:52:45;;;;;;;57.33;2.73;;;;;;;;;;5072220;28;20497;-67
2023/05/13 08:55:13;;;;;;;56.87;2.30;;;;;;;;;;5072210;28;20448;-67
2023/05/13 08:57:40;;;;;;;56.83;2.23;;;;;;;;;;5071954;28;20890;-67
2023/05/13 09:00:08;;;;;;;56.77;2.40;;;;;;;;;;5071895;28;20788;-67
2023/05/13 09:02:35;;;;;;;57.00;2.53;;;;;;;;;;5072162;28;20449;-67
2023/05/13 09:05:04;;;;;;;56.77;2.10;;;;;;;;;;5071993;28;20443;-67
2023/05/13 09:07:31;;;;;;;56.97;2.50;;;;;;;;;;5072014;28;20454;-67
2023/05/13 09:10:00;;;;;;;61.27;3.10;;;;;;;;;;5071411;28;20967;-67
2023/05/13 09:12:47;;;;;;;56.87;2.20;;;;;;;;;;5072119;28;20444;-67
2023/05/13 09:15:15;;;;;;;57.00;2.30;;;;;;;;;;5067111;28;20471;-67
2023/05/13 09:17:44;;;;;;;56.87;2.40;;;;;;;;;;5072082;28;20474;-68
2023/05/13 09:20:12;;;;;;;57.20;2.37;;;;;;;;;;5071611;28;20491;-67
2023/05/13 09:22:41;;;;;;;56.67;2.20;;;;;;;;;;5071751;28;20475;-67
2023/05/13 09:25:12;;;;;;;57.30;2.60;;;;;;;;;;5071836;28;20471;-67
2023/05/13 09:27:39;;;;;;;56.93;2.83;;;;;;;;;;5071942;28;20451;-67
2023/05/13 09:30:07;;;;;;;56.90;2.30;;;;;;;;;;5071562;28;20470;-67
2023/05/13 09:32:34;;;;;;;56.77;1.93;;;;;;;;;;5072002;28;20533;-67
2023/05/13 09:35:08;;;;;;;57.17;2.87;;;;;;;;;;5071634;28;20443;-67
2023/05/13 09:37:36;;;;;;;57.50;2.40;;;;;;;;;;5071953;28;20451;-68
2023/05/13 09:40:03;;;;;;;57.03;2.30;;;;;;;;;;5071325;28;20498;-68
2023/05/13 09:42:31;;;;;;;56.97;2.10;;;;;;;;;;5071612;28;20451;-68
2023/05/13 09:45:05;;;;;;;56.97;2.10;;;;;;;;;;5071720;28;20451;-68
2023/05/13 09:47:32;;;;;;;57.07;2.20;;;;;;;;;;5071476;28;20501;-68
2023/05/13 09:50:02;;;;;;;57.10;2.20;;;;;;;;;;5071109;28;20450;-68
2023/05/13 09:52:30;;;;;;;57.87;3.37;;;;;;;;;;5071676;28;20447;-68
2023/05/13 09:54:57;;;;;;;57.00;2.07;;;;;;;;;;5071900;28;20454;-68
2023/05/13 09:57:24;;;;;;;56.67;2.00;;;;;;;;;;5071462;28;20443;-68
2023/05/13 09:59:57;;;;;;;56.67;2.20;;;;;;;;;;5071046;28;20497;-68
2023/05/13 10:02:25;;;;;;;56.73;2.23;;;;;;;;;;5071827;28;20443;-68
2023/05/13 10:04:53;;;;;;;56.90;2.20;;;;;;;;;;5071565;28;20491;-68
2023/05/13 10:07:23;;;;;;;56.97;2.03;;;;;;;;;;5071466;28;20500;-68
2023/05/13 10:09:51;;;;;;;56.77;2.47;;;;;;;;;;5071033;28;20500;-67
2023/05/13 10:12:20;;;;;;;57.10;2.40;;;;;;;;;;5071415;28;20451;-67
2023/05/13 10:14:48;;;;;;;57.10;2.50;;;;;;;;;;5071266;28;20475;-67
2023/05/13 10:17:16;;;;;;;56.80;2.17;;;;;;;;;;5071505;28;20453;-67
2023/05/13 10:19:44;;;;;;;57.57;2.40;;;;;;;;;;5070907;28;20447;-68
2023/05/13 10:22:12;;;;;;;56.57;2.07;;;;;;;;;;5071716;28;20458;-68
2023/05/13 10:24:39;;;;;;;56.77;2.10;;;;;;;;;;5071054;28;20497;-68
2023/05/13 10:27:07;;;;;;;56.67;2.10;;;;;;;;;;5071267;28;20454;-67
2023/05/13 10:29:35;;;;;;;56.77;2.00;;;;;;;;;;5070855;28;20462;-67
2023/05/13 10:32:02;;;;;;;57.07;2.30;;;;;;;;;;5071064;28;20471;-68
2023/05/13 10:34:32;;;;;;;58.27;3.23;;;;;;;;;;5071204;28;20457;-68
2023/05/13 10:37:10;;;;;;;56.97;2.20;;;;;;;;;;5071197;28;20446;-68
2023/05/13 10:39:52;;;;;;;56.87;2.40;;;;;;;;;;5070658;28;20487;-68
2023/05/13 10:42:37;;;;;;;56.77;2.10;;;;;;;;;;5072636;28;20444;-68
2023/05/13 10:45:05;;;;;;;57.80;2.50;;;;;;;;;;5074711;28;20447;-68
2023/05/13 10:47:33;;;;;;;58.00;2.57;;;;;;;;;;5074695;28;20478;-68
2023/05/13 10:50:05;;;;;;;56.90;2.10;;;;;;;;;;5074064;28;20447;-67
2023/05/13 10:52:42;;;;;;;56.90;2.10;;;;;;;;;;5074654;28;20478;-67
2023/05/13 10:55:15;;;;;;;57.10;2.10;;;;;;;;;;5074634;28;20454;-67
2023/05/13 10:57:42;;;;;;;57.17;2.73;;;;;;;;;;5074571;28;20451;-67
2023/05/13 11:00:14;;;;;;;56.77;2.10;;;;;;;;;;5074229;28;20468;-68
2023/05/13 11:02:41;;;;;;;57.50;2.50;;;;;;;;;;5074292;28;20505;-68
2023/05/13 11:05:09;;;;;;;56.97;2.30;;;;;;;;;;5074242;28;20454;-68
2023/05/13 11:07:39;;;;;;;57.07;2.60;;;;;;;;;;5074343;28;20872;-68
2023/05/13 11:10:24;;;;;;;56.90;2.10;;;;;;;;;;5073869;28;20475;-68
2023/05/13 11:13:06;;;;;;;56.77;2.30;;;;;;;;;;5074167;28;20538;-68
2023/05/13 11:15:44;;;;;;;57.10;2.30;;;;;;;;;;5074331;28;20455;-68
2023/05/13 11:18:12;;;;;;;56.90;2.40;;;;;;;;;;5074118;28;20439;-68
2023/05/13 11:20:40;;;;;;;56.67;2.20;;;;;;;;;;5073665;28;20863;-68
2023/05/13 11:23:07;;;;;;;56.73;2.27;;;;;;;;;;5073601;28;20447;-68
2023/05/13 11:25:35;;;;;;;57.00;2.10;;;;;;;;;;5073865;28;20463;-68
2023/05/13 11:28:03;;;;;;;56.67;2.00;;;;;;;;;;5073702;28;20947;-68
2023/05/13 11:30:30;;;;;;;57.37;2.30;;;;;;;;;;5073567;28;20463;-68
2023/05/13 11:32:58;;;;;;;57.00;2.57;;;;;;;;;;5073696;28;20459;-68
2023/05/13 11:35:26;;;;;;;56.87;2.00;;;;;;;;;;5073805;28;20846;-68
2023/05/13 11:37:54;;;;;;;56.83;2.20;;;;;;;;;;5072599;28;20455;-68
2023/05/13 11:40:22;;;;;;;56.87;2.10;;;;;;;;;;5073139;28;21013;-68
2023/05/13 11:42:49;;;;;;;56.77;2.07;;;;;;;;;;5073331;28;20854;-68
2023/05/13 11:45:17;;;;;;;56.70;2.30;;;;;;;;;;5073551;28;20450;-68
2023/05/13 11:47:45;;;;;;;56.80;2.10;;;;;;;;;;5073302;28;20447;-68
2023/05/13 11:50:19;;;;;;;57.07;2.53;;;;;;;;;;5072640;28;20507;-68
2023/05/13 11:52:46;;;;;;;56.87;2.30;;;;;;;;;;5072761;28;20454;-68
2023/05/13 11:55:24;;;;;;;56.90;1.87;;;;;;;;;;5073482;28;20872;-67
2023/05/13 11:57:52;;;;;;;56.90;2.10;;;;;;;;;;5073377;28;20492;-67
2023/05/13 12:00:24;;;;;;;57.20;2.70;;;;;;;;;;5072763;28;20471;-67
2023/05/13 12:02:51;;;;;;;57.13;2.43;;;;;;;;;;5073114;28;20508;-67
2023/05/13 12:05:19;;;;;;;57.07;2.50;;;;;;;;;;5073471;28;20448;-67
2023/05/13 12:07:46;;;;;;;57.40;2.43;;;;;;;;;;5073154;28;20534;-67
2023/05/13 12:10:14;;;;;;;56.67;1.90;;;;;;;;;;5072782;28;20469;-67
2023/05/13 12:12:42;;;;;;;57.80;3.30;;;;;;;;;;5073082;28;20443;-67
2023/05/13 12:15:11;;;;;;;57.00;2.00;;;;;;;;;;5072943;28;20455;-67
2023/05/13 12:17:38;;;;;;;57.17;2.30;;;;;;;;;;5072830;28;20474;-67
2023/05/13 12:20:10;;;;;;;57.30;2.20;;;;;;;;;;5072353;28;20463;-67
2023/05/13 12:22:38;;;;;;;56.90;2.10;;;;;;;;;;5072681;28;20478;-67
2023/05/13 12:25:24;;;;;;;56.97;2.20;;;;;;;;;;5072561;28;20459;-67
2023/05/13 12:27:53;;;;;;;57.60;2.30;;;;;;;;;;5072526;28;20454;-67
2023/05/13 12:30:20;;;;;;;57.00;2.50;;;;;;;;;;5072730;28;20464;-67
2023/05/13 12:32:47;;;;;;;56.77;2.23;;;;;;;;;;5072620;28;20936;-67
2023/05/13 12:35:15;;;;;;;57.27;2.10;;;;;;;;;;5072682;28;20455;-67
2023/05/13 12:37:42;;;;;;;57.00;2.23;;;;;;;;;;5072482;28;20448;-67
2023/05/13 12:40:09;;;;;;;56.70;2.00;;;;;;;;;;5072134;28;20471;-68
2023/05/13 12:42:37;;;;;;;57.10;2.40;;;;;;;;;;5072174;28;20483;-68
2023/05/13 12:45:06;;;;;;;57.03;2.63;;;;;;;;;;5072536;28;20450;-68
2023/05/13 12:47:48;;;;;;;57.20;2.20;;;;;;;;;;5072440;28;20446;-68
2023/05/13 12:50:16;;;;;;;57.27;2.17;;;;;;;;;;5072219;28;20809;-68
2023/05/13 12:52:43;;;;;;;57.40;2.37;;;;;;;;;;5072188;28;20483;-68
2023/05/13 12:55:12;;;;;;;57.00;2.20;;;;;;;;;;5072313;28;20469;-68
2023/05/13 12:57:40;;;;;;;57.37;2.70;;;;;;;;;;5072176;28;20452;-68
2023/05/13 13:00:10;;;;;;;57.17;2.10;;;;;;;;;;5071966;28;20463;-68
2023/05/13 13:02:37;;;;;;;56.47;1.90;;;;;;;;;;5072098;28;20487;-68
2023/05/13 13:05:05;;;;;;;57.00;2.10;;;;;;;;;;5071572;28;20454;-68
2023/05/13 13:07:32;;;;;;;56.87;2.33;;;;;;;;;;5072025;28;21025;-68
2023/05/13 13:09:59;;;;;;;57.27;2.70;;;;;;;;;;5071817;28;20797;-68
2023/05/13 13:12:26;;;;;;;57.03;2.27;;;;;;;;;;5072129;28;20828;-68
2023/05/13 13:14:53;;;;;;;58.10;2.60;;;;;;;;;;5072023;28;20448;-68
2023/05/13 13:17:22;;;;;;;56.93;2.07;;;;;;;;;;5072238;28;20447;-68
2023/05/13 13:19:49;;;;;;;56.93;2.10;;;;;;;;;;5071403;28;20453;-68
2023/05/13 13:22:16;;;;;;;56.77;2.00;;;;;;;;;;5071659;28;20488;-68
2023/05/13 13:24:43;;;;;;;57.90;2.60;;;;;;;;;;5071890;28;20486;-68
2023/05/13 13:27:11;;;;;;;57.30;2.63;;;;;;;;;;5071940;28;20449;-68
2023/05/13 13:29:39;;;;;;;57.53;2.87;;;;;;;;;;5071483;28;20518;-68
2023/05/13 13:32:06;;;;;;;57.20;2.30;;;;;;;;;;5071742;28;20467;-68
2023/05/13 13:34:36;;;;;;;57.87;2.60;;;;;;;;;;5071808;28;20443;-68
2023/05/13 13:37:03;;;;;;;56.87;2.23;;;;;;;;;;5071844;28;20451;-68
2023/05/13 13:39:30;;;;;;;56.80;2.20;;;;;;;;;;5071589;28;20660;-68
2023/05/13 13:41:57;;;;;;;57.00;2.20;;;;;;;;;;5071450;28;20483;-68
2023/05/13 13:44:24;;;;;;;57.07;2.53;;;;;;;;;;5071743;28;20822;-68
2023/05/13 13:46:51;;;;;;;56.80;2.10;;;;;;;;;;5071599;28;20454;-68
2023/05/13 13:49:20;;;;;;;57.30;2.70;;;;;;;;;;5071083;28;20448;-68
2023/05/13 13:51:48;;;;;;;57.20;2.40;;;;;;;;;;5071733;28;20466;-68
2023/05/13 13:54:16;;;;;;;56.97;2.30;;;;;;;;;;5071632;28;20966;-68
2023/05/13 13:56:43;;;;;;;59.00;2.70;;;;;;;;;;5071582;28;20447;-67
2023/05/13 13:59:10;;;;;;;57.10;2.00;;;;;;;;;;5071085;28;20439;-67
2023/05/13 14:01:39;;;;;;;57.60;2.50;;;;;;;;;;5071221;28;20479;-67
2023/05/13 14:04:12;;;;;;;57.17;2.00;;;;;;;;;;5071634;28;20474;-67
2023/05/13 14:06:39;;;;;;;57.37;2.20;;;;;;;;;;5071372;28;20800;-67
2023/05/13 14:09:08;;;;;;;57.27;2.37;;;;;;;;;;5071205;28;20451;-67
2023/05/13 14:11:35;;;;;;;57.30;2.93;;;;;;;;;;5071314;28;20463;-67
2023/05/13 14:14:02;;;;;;;56.97;2.50;;;;;;;;;;5071236;28;20451;-67
2023/05/13 14:16:29;;;;;;;56.77;2.40;;;;;;;;;;5073210;28;20449;-67
2023/05/13 14:18:56;;;;;;;57.30;2.23;;;;;;;;;;5074924;28;20447;-67
2023/05/13 14:21:23;;;;;;;57.60;2.83;;;;;;;;;;5074993;28;20487;-67
2023/05/13 14:23:50;;;;;;;56.97;2.20;;;;;;;;;;5075086;28;20963;-67
2023/05/13 14:26:20;;;;;;;57.20;2.27;;;;;;;;;;5075111;28;20458;-67
2023/05/13 14:28:47;;;;;;;57.27;2.80;;;;;;;;;;5075122;28;20874;-67
2023/05/13 14:31:14;;;;;;;57.23;2.30;;;;;;;;;;5074998;28;20467;-67
2023/05/13 14:33:41;;;;;;;57.47;2.47;;;;;;;;;;5075016;28;20475;-67
2023/05/13 14:36:10;;;;;;;56.87;2.20;;;;;;;;;;5074946;28;20443;-70